Data for 09/15/2014

Time Sea-Level Adjusted Pressure Absolute Pressure Temperature Relative Humidity Dew Point   
(mb) (inHg) (mb) (inHg) (C) (F) (%) (C) (F)
00:05 1023 30.21 852 25.16 9.9 49.9 59 2.4 36.2
00:10 1023 30.21 852 25.16 9.8 49.7 59 2.3 36.2
00:15 1023 30.21 852 25.16 9.7 49.5 60 2.4 36.3
00:20 1023 30.21 852 25.16 9.7 49.4 60 2.4 36.3
00:25 1023 30.21 852 25.16 9.7 49.4 60 2.4 36.3
00:30 1023 30.21 852 25.16 9.6 49.2 61 2.4 36.2
00:35 1023 30.21 852 25.16 9.6 49.2 61 2.4 36.2
00:40 1023 30.21 852 25.16 9.6 49.3 60 2.4 36.3
00:45 1023 30.21 852 25.16 9.6 49.3 60 2.4 36.3
00:50 1023 30.21 852 25.16 9.6 49.2 61 2.5 36.4
00:55 1023 30.21 852 25.16 9.5 49 61 2.4 36.4
01:00 1023 30.21 852 25.16 9.4 48.8 62 2.4 36.3
01:05 1023 30.21 852 25.16 9.3 48.8 61 2.3 36.2
01:10 1023 30.21 852 25.16 9.3 48.7 62 2.4 36.4
01:15 1023 30.21 852 25.16 9.2 48.6 62 2.4 36.3
01:20 1023 30.21 852 25.16 9.1 48.4 62 2.4 36.2
01:25 1023 30.21 852 25.16 9.1 48.3 63 2.3 36.2
01:30 1023 30.21 852 25.16 9.1 48.3 63 2.3 36.2
01:35 1023 30.21 852 25.16 9.1 48.4 63 2.4 36.3
01:40 1023 30.21 852 25.16 9.1 48.3 63 2.3 36.2
01:45 1023 30.21 852 25.16 9 48.3 63 2.3 36.2
01:50 1023 30.21 852 25.16 9 48.2 62 2.3 36.1
01:55 1023 30.21 852 25.16 9 48.2 63 2.3 36.2
02:00 1023 30.21 852 25.16 9 48.2 63 2.3 36.1
02:05 1023 30.21 852 25.16 9 48.2 63 2.3 36.1
02:10 1023 30.21 852 25.16 9 48.1 63 2.3 36.2
02:15 1023 30.21 852 25.16 8.9 48 63 2.3 36.1
02:20 1023 30.21 852 25.16 8.9 47.9 64 2.3 36.2
02:25 1023 30.21 852 25.16 8.7 47.7 64 2.3 36.1
02:30 1023 30.21 852 25.16 8.7 47.6 64 2.3 36.2
02:35 1023 30.21 852 25.16 8.7 47.6 64 2.3 36.2
02:40 1023 30.21 852 25.16 8.6 47.5 64 2.3 36.1
02:45 1023 30.21 852 25.16 8.5 47.3 65 2.3 36.2
02:50 1023 30.21 852 25.16 8.5 47.3 65 2.2 36
02:55 1023 30.21 852 25.16 8.5 47.3 65 2.2 36
03:00 1023 30.21 852 25.16 8.5 47.3 65 2.2 36
03:05 1023 30.21 852 25.16 8.5 47.3 64 2.2 35.9
03:10 1023 30.21 852 25.16 8.6 47.4 64 2.2 35.9
03:15 1023 30.21 852 25.16 8.5 47.3 65 2.3 36.1
03:20 1023 30.21 852 25.16 8.4 47 65 2.2 36
03:25 1023 30.21 852 25.16 8.3 47 65 2.2 35.9
03:30 1023 30.21 852 25.16 8.3 46.9 65 2.2 35.9
03:35 1023 30.21 852 25.16 8.3 46.9 65 2.2 36
03:40 1023 30.21 852 25.16 8.2 46.8 65 2.1 35.9
03:45 1023 30.21 852 25.16 8.2 46.8 65 2 35.6
03:50 1023 30.21 852 25.16 8.2 46.8 65 2.1 35.8
03:55 1023 30.21 852 25.16 8.1 46.6 65 2.1 35.7
04:00 1023 30.21 852 25.16 8.1 46.6 65 2 35.7
04:05 1023 30.21 852 25.16 8 46.4 66 2 35.6
04:10 1023 30.21 852 25.16 7.9 46.3 66 2.1 35.7
04:15 1023 30.21 852 25.16 7.8 46.1 67 2 35.7
04:20 1023 30.21 852 25.16 7.8 46.1 66 2 35.6
04:25 1023 30.21 852 25.16 7.8 46.1 66 2 35.6
04:30 1023 30.21 852 25.16 7.8 46 67 2 35.6
04:35 1023 30.21 852 25.16 7.7 45.9 67 2 35.7
04:40 1023 30.21 852 25.16 7.7 45.8 67 2 35.5
04:45 1023 30.21 852 25.16 7.6 45.7 68 2 35.6
04:50 1023 30.21 852 25.16 7.5 45.5 68 2 35.6
04:55 1023 30.21 852 25.16 7.4 45.4 69 2 35.7
05:00 1023 30.21 852 25.16 7.3 45.1 69 1.9 35.5
05:05 1023 30.21 852 25.16 7.2 44.9 70 2 35.6
05:10 1023 30.21 852 25.16 6.8 44.2 71 1.8 35.3
05:15 1023 30.21 852 25.16 6.7 44 71 1.9 35.4
05:20 1023 30.21 852 25.16 6.3 43.3 73 1.8 35.2
05:25 1023 30.21 852 25.16 6.1 43 72 1.5 34.7
05:30 1023 30.21 852 25.16 6 42.9 73 1.5 34.7
05:35 1023 30.21 852 25.16 6 42.7 73 1.5 34.7
05:40 1023 30.21 852 25.16 5.8 42.4 74 1.5 34.7
05:45 1023 30.21 852 25.16 5.7 42.3 74 1.4 34.5
05:50 1023 30.21 852 25.16 5.8 42.5 73 1.3 34.4
05:55 1023 30.21 852 25.16 5.9 42.7 72 1.3 34.3
06:00 1023 30.21 852 25.16 5.7 42.3 74 1.4 34.5
06:05 1023 30.21 852 25.16 5.5 41.8 73 1.1 34
06:10 1023 30.21 852 25.16 5.4 41.7 73 0.9 33.7
06:15 1023 30.21 852 25.16 5.4 41.7 73 1 33.8
06:20 1023 30.21 852 25.16 5.4 41.7 73 1 33.8
06:25 1023 30.21 852 25.16 5.6 42.1 72 1 33.9
06:30 1023 30.21 852 25.16 6.1 43 71 1.3 34.3
06:35 1023 30.21 852 25.16 6.3 43.3 71 1.3 34.4
06:40 1023 30.21 852 25.16 6.4 43.6 70 1.4 34.5
06:45 1023 30.21 852 25.16 6.5 43.7 70 1.4 34.5
06:50 1023 30.21 852 25.16 6.6 43.9 70 1.5 34.7
06:55 1023 30.21 852 25.16 6.7 44 69 1.4 34.6
07:00 1023 30.21 852 25.16 6.9 44.3 69 1.5 34.8
07:05 1023 30.21 852 25.16 6.9 44.5 69 1.6 34.9
07:10 1023 30.21 852 25.16 7.2 44.9 68 1.7 35.1
07:15 1023 30.21 852 25.16 7.4 45.3 66 1.6 34.9
07:20 1023 30.21 852 25.16 7.6 45.6 66 1.7 35
07:25 1023 30.21 852 25.16 7.7 45.9 66 1.7 35
07:30 1023 30.21 852 25.16 7.9 46.3 65 1.8 35.3
07:35 1023 30.21 852 25.16 8.1 46.7 65 1.9 35.4
07:40 1023 30.21 852 25.16 8.3 47 64 2 35.7
07:45 1023 30.21 852 25.16 8.6 47.4 64 2.1 35.7
07:50 1023 30.21 852 25.16 9.1 48.3 61 2 35.6
07:55 1023 30.21 852 25.16 9.2 48.6 60 2 35.5
08:00 1023 30.21 852 25.16 9.7 49.5 59 2.2 36
08:05 1023 30.21 852 25.16 10 49.9 59 2.2 36
08:10 1023 30.21 852 25.16 10.5 50.8 56 2.1 35.9
08:15 1023 30.21 852 25.16 10.4 50.8 57 2.4 36.3
08:20 1023 30.21 852 25.16 10.5 51 56 2.3 36.1
08:25 1023 30.21 852 25.16 11.5 52.6 53 2.2 35.9
08:30 1023 30.21 852 25.16 11.6 52.9 52 2.1 35.8
08:35 1023 30.21 852 25.16 11.5 52.6 53 2.1 35.8
08:40 1023 30.21 852 25.16 12.4 54.2 48 1.8 35.3
08:45 1023 30.21 852 25.16 12.7 54.9 46 1.5 34.7
08:50 1023 30.21 852 25.16 12.7 54.9 45 1.3 34.3
08:55 1023 30.21 852 25.16 12.8 55.1 45 1.4 34.5
09:00 1023 30.21 852 25.16 12.9 55.2 44 1 33.8
09:05 1023 30.21 852 25.16 13.5 56.2 41 0.5 33
09:10 1023 30.21 852 25.16 14.1 57.5 40 0.7 33.2
09:15 1023 30.21 852 25.16 14.3 57.7 40 0.9 33.7
09:20 1023 30.21 852 25.16 14.5 58.1 39 0.9 33.7
09:25 1023 30.21 852 25.16 14.8 58.7 39 1.2 34.2
09:30 1023 30.21 852 25.16 15.2 59.4 36 0.5 32.9
09:35 1023 30.21 852 25.16 15.3 59.6 38 1.1 34
09:40 1023 30.21 852 25.16 15.4 59.8 38 1.4 34.4
09:45 1023 30.21 852 25.16 15.9 60.7 37 1.4 34.5
09:50 1023 30.21 852 25.16 15.8 60.4 38 1.7 35
09:55 1023 30.21 852 25.16 15.4 59.8 38 1.2 34.1
10:00 1023 30.21 852 25.16 15.7 60.2 38 1.6 35
10:05 1023 30.21 852 25.16 16.1 61 36 1.3 34.3
10:10 1023 30.21 852 25.16 15.7 60.3 39 1.8 35.3
10:15 1023 30.21 852 25.16 15.6 60 39 1.9 35.4
10:20 1023 30.21 852 25.16 16.2 61.2 36 1.4 34.5
10:25 1023 30.21 852 25.16 16.6 61.9 37 1.8 35.3
10:30 1023 30.21 852 25.16 16.8 62.3 36 1.8 35.2
10:35 1023 30.21 852 25.16 17.4 63.3 34 1.4 34.5
10:40 1023 30.21 852 25.16 17.6 63.7 36 2.5 36.4
10:45 1023 30.21 852 25.16 17.1 62.7 36 1.9 35.4
10:50 1023 30.21 852 25.16 17.5 63.5 36 2.2 36
10:55 1023 30.21 852 25.16 16.4 61.5 41 3.2 37.8
11:00 1023 30.21 852 25.16 15.9 60.5 40 2.3 36.1
11:05 1023 30.21 852 25.16 17.3 63.1 35 1.9 35.5
11:10 1023 30.21 852 25.16 17.9 64.1 36 2.6 36.8
11:15 1023 30.21 852 25.16 18 64.5 34 1.9 35.5
11:20 1023 30.21 852 25.16 18.3 65 32 1.5 34.6
11:25 1023 30.21 852 25.16 18.6 65.5 32 1.9 35.4
11:30 1023 30.21 852 25.16 18.6 65.5 32 1.8 35.3
11:35 1023 30.21 852 25.16 19.2 66.5 32 2.3 36.2
11:40 1023 30.21 852 25.16 19 66.2 31 1.8 35.2
11:45 1023 30.21 852 25.16 19.3 66.7 32 2.2 36
11:50 1023 30.21 852 25.16 19.3 66.7 32 2.3 36.2
11:55 1023 30.21 852 25.16 18.4 65 34 2.2 35.9
12:00 1023 30.21 852 25.16 18.6 65.5 32 1.6 34.9
12:05 1023 30.21 852 25.16 19.6 67.3 28 1 33.8
12:10 1023 30.21 852 25.16 19.7 67.5 30 1.8 35.3
12:15 1023 30.21 852 25.16 19.3 66.7 31 1.8 35.3
12:20 1023 30.21 852 25.16 20 68 30 2.2 35.9
12:25 1022 30.18 852 25.16 19.5 67.1 29 1.3 34.4
12:30 1022 30.18 852 25.16 19.6 67.3 29 1.3 34.3
12:35 1022 30.18 852 25.16 20 68 29 1.4 34.5
12:40 1022 30.18 852 25.16 20.3 68.6 29 1.9 35.5
12:45 1022 30.18 851 25.13 20.5 68.9 27 1.1 33.9
12:50 1022 30.18 851 25.13 20.9 69.6 27 1.2 34.2
12:55 1022 30.18 851 25.13 21.5 70.6 26 1.4 34.5
13:00 1022 30.18 851 25.13 20.8 69.5 27 1.2 34.2
13:05 1022 30.18 851 25.13 21.4 70.5 26 1.5 34.7
13:10 1022 30.18 851 25.13 22 71.6 23 0.4 32.7
13:15 1022 30.18 851 25.13 21.8 71.3 26 1.5 34.8
13:20 1022 30.18 851 25.13 21.6 71 28 2.4 36.2
13:25 1022 30.18 851 25.13 21.9 71.4 25 1.1 34
13:30 1022 30.18 851 25.13 22 71.5 26 1.9 35.4
13:35 1022 30.18 851 25.13 21.3 70.4 26 1.2 34.1
13:40 1022 30.18 851 25.13 22.1 71.7 25 1.3 34.4
13:45 1022 30.18 851 25.13 22.7 72.8 25 1.9 35.5
13:50 1022 30.18 851 25.13 21.8 71.3 27 2.2 36
13:55 1022 30.18 851 25.13 21.7 71 27 1.9 35.5
14:00 1021 30.15 851 25.13 22.7 72.9 25 1.8 35.3
14:05 1021 30.15 851 25.13 22.7 72.9 25 1.7 35.1
14:10 1021 30.15 851 25.13 22.1 71.8 25 1.6 34.9
14:15 1021 30.15 851 25.13 22.2 72 25 1.5 34.7
14:20 1021 30.15 851 25.13 22.7 72.8 24 1.2 34.2
14:25 1021 30.15 850 25.1 23.2 73.8 24 1.9 35.4
14:30 1021 30.15 850 25.1 23.4 74 23 1.4 34.5
14:35 1021 30.15 850 25.1 24.1 75.4 23 1.8 35.2
14:40 1021 30.15 850 25.1 23.8 74.8 24 2.2 36
14:45 1021 30.15 850 25.1 23.8 74.8 21 0.6 33.1
14:50 1021 30.15 850 25.1 24.2 75.6 21 0.6 33.1
14:55 1021 30.15 850 25.1 24.7 76.4 20 0.4 32.7
15:00 1021 30.15 850 25.1 25 77.1 21 1.2 34.2
15:05 1021 30.15 850 25.1 25.2 77.3 20 0.6 33
15:10 1021 30.15 850 25.1 25.1 77.2 19 0.4 32.7
15:15 1021 30.15 850 25.1 25.2 77.4 17 -1.1 30
15:20 1021 30.15 850 25.1 25.3 77.5 18 -0.8 30.6
15:25 1021 30.15 850 25.1 25.7 78.2 17 -0.8 30.5
15:30 1021 30.15 850 25.1 25.9 78.5 16 -1.3 29.6
15:35 1021 30.15 850 25.1 26 78.7 14 -3.3 26.1
15:40 1021 30.15 850 25.1 25.9 78.6 15 -2.2 28.1
15:45 1021 30.15 850 25.1 26 78.8 15 -2.4 27.7
15:50 1021 30.15 850 25.1 24.9 76.8 16 -2.8 27
15:55 1021 30.15 850 25.1 24.3 75.7 16 -3.3 26
16:00 1021 30.15 850 25.1 25.4 77.8 15 -2.7 27.1
16:05 1021 30.15 850 25.1 25.6 78.1 17 -0.7 30.8
16:10 1021 30.15 850 25.1 25.5 77.9 15 -2.8 26.9
16:15 1021 30.15 850 25.1 25.6 78.1 15 -2.5 27.6
16:20 1021 30.15 850 25.1 25.1 77.2 15 -3.3 26.1
16:25 1021 30.15 850 25.1 25.3 77.5 15 -3.1 26.4
16:30 1021 30.15 850 25.1 25.5 77.9 14 -3.5 25.6
16:35 1021 30.15 850 25.1 25.6 78.1 15 -2.9 26.7
16:40 1021 30.15 850 25.1 24.9 76.8 15 -3.4 25.8
16:45 1021 30.15 850 25.1 25 77 15 -3.6 25.6
16:50 1021 30.15 850 25.1 25.4 77.8 13 -4.4 24.1
16:55 1021 30.15 850 25.1 25.7 78.3 14 -3.8 25.2
17:00 1021 30.15 850 25.1 25.8 78.4 15 -2.7 27.2
17:05 1021 30.15 850 25.1 25.1 77.2 17 -1.6 29.1
17:10 1021 30.15 850 25.1 24.3 75.7 18 -1.1 30
17:15 1021 30.15 850 25.1 23.9 75 18 -1.6 29
17:20 1021 30.15 850 25.1 23.9 75 18 -1.3 29.6
17:25 1020 30.12 850 25.1 23.2 73.8 20 -1 30.2
17:30 1020 30.12 850 25.1 23.2 73.8 22 0.4 32.7
17:35 1020 30.12 850 25.1 23.1 73.7 22 0.6 33
17:40 1020 30.12 850 25.1 22.8 73.1 22 0.2 32.3
17:45 1020 30.12 850 25.1 22.6 72.6 22 0.3 32.5
17:50 1020 30.12 850 25.1 22.4 72.3 24 1.1 33.9
17:55 1020 30.12 850 25.1 21.8 71.3 27 2.1 35.8
18:00 1020 30.12 850 25.1 21.3 70.3 28 2.4 36.3
18:05 1020 30.12 850 25.1 21 69.9 29 2.4 36.4
18:10 1020 30.12 850 25.1 20.6 69.1 30 2.8 37
18:15 1020 30.12 850 25.1 20 67.9 32 2.7 36.9
18:20 1020 30.12 850 25.1 19.3 66.8 31 1.8 35.2
18:25 1020 30.12 850 25.1 18.7 65.7 32 2 35.7
18:30 1020 30.12 850 25.1 18.4 65.2 31 0.9 33.6
18:35 1020 30.12 849 25.07 18.1 64.5 30 0.6 33
18:40 1020 30.12 849 25.07 17.7 63.8 32 0.9 33.7
18:45 1020 30.12 849 25.07 17.3 63.1 32 0.7 33.2
18:50 1020 30.12 849 25.07 17.3 63.1 33 1 33.8
18:55 1020 30.12 849 25.07 17.1 62.7 32 0.6 33
19:00 1020 30.12 850 25.1 16.7 62 33 0.4 32.8
19:05 1020 30.12 850 25.1 16.3 61.4 33 0.2 32.4
19:10 1020 30.12 850 25.1 16.1 61 37 1.5 34.8
19:15 1021 30.15 850 25.1 15.6 60.1 37 1 33.8
19:20 1021 30.15 850 25.1 15.4 59.8 33 -0.6 30.9
19:25 1021 30.15 850 25.1 15.4 59.8 32 -1 30.2
19:30 1021 30.15 850 25.1 15.4 59.6 32 -1.4 29.5
19:35 1021 30.15 850 25.1 15.5 59.8 32 -1.2 29.9
19:40 1021 30.15 850 25.1 15.5 59.9 32 -1.1 30
19:45 1021 30.15 850 25.1 15.3 59.5 33 -0.7 30.7
19:50 1021 30.15 850 25.1 15 58.9 33 -1 30.3
19:55 1021 30.15 850 25.1 14.8 58.6 33 -1.1 30
20:00 1021 30.15 850 25.1 14.7 58.4 33 -1.2 29.8
20:05 1021 30.15 850 25.1 14.5 58.2 33 -1.4 29.5
20:10 1021 30.15 850 25.1 14.6 58.2 33 -1.5 29.4
20:15 1021 30.15 850 25.1 14.5 58 34 -1.2 29.9
20:20 1021 30.15 850 25.1 14.3 57.7 34 -1.3 29.6
20:25 1021 30.15 850 25.1 14.3 57.7 33 -1.8 28.8
20:30 1021 30.15 850 25.1 14.6 58.2 32 -1.9 28.5
20:35 1021 30.15 850 25.1 14.6 58.4 33 -1.3 29.7
20:40 1021 30.15 850 25.1 14.2 57.6 32 -2 28.3
20:45 1021 30.15 850 25.1 14.3 57.8 32 -2.2 28
20:50 1021 30.15 850 25.1 14.6 58.3 31 -2.1 28.3
20:55 1021 30.15 850 25.1 14.8 58.6 30 -2.6 27.4
21:00 1021 30.15 850 25.1 15 59 30 -2.4 27.6
21:05 1021 30.15 850 25.1 15 59 30 -2.4 27.7
21:10 1021 30.15 850 25.1 15 58.9 30 -2.5 27.4
21:15 1021 30.15 850 25.1 14.9 58.7 29 -3 26.7
21:20 1021 30.15 850 25.1 15.1 59.2 30 -2.3 27.8
21:25 1021 30.15 850 25.1 14.8 58.6 30 -2.3 27.8
21:30 1021 30.15 850 25.1 14.5 58.1 32 -1.8 28.8
21:35 1021 30.15 850 25.1 14.2 57.5 32 -2.2 28.1
21:40 1021 30.15 850 25.1 14 57.3 33 -1.8 28.8
21:45 1021 30.15 850 25.1 14 57.2 32 -2.2 28
21:50 1021 30.15 850 25.1 14 57.1 33 -2 28.5
21:55 1021 30.15 850 25.1 13.3 55.9 37 -0.9 30.3
22:00 1021 30.15 850 25.1 12.8 55 35 -2.2 28
22:05 1021 30.15 850 25.1 13.6 56.5 33 -2.2 28
22:10 1021 30.15 850 25.1 13.9 57 31 -3 26.6
22:15 1021 30.15 850 25.1 14.2 57.5 33 -1.9 28.6
22:20 1021 30.15 850 25.1 13.5 56.3 33 -2.4 27.6
22:25 1021 30.15 850 25.1 13.6 56.5 33 -2.3 27.9
22:30 1021 30.15 850 25.1 13.4 56.1 33 -2.5 27.5
22:35 1021 30.15 850 25.1 13.6 56.5 32 -2.8 27
22:40 1021 30.15 850 25.1 13.7 56.7 33 -2.3 27.9
22:45 1021 30.15 850 25.1 13.7 56.6 31 -3.1 26.4
22:50 1021 30.15 850 25.1 14.1 57.4 31 -2.7 27.1
22:55 1021 30.15 850 25.1 14.3 57.8 31 -2.6 27.3
23:00 1021 30.15 850 25.1 14 57.3 32 -2.3 27.9
23:05 1021 30.15 850 25.1 13.7 56.6 32 -2.6 27.4
23:10 1021 30.15 850 25.1 13.6 56.5 32 -2.7 27.1
23:15 1021 30.15 850 25.1 13.8 56.8 31 -3 26.7
23:20 1021 30.15 850 25.1 13.8 56.8 32 -2.7 27.2
23:25 1021 30.15 850 25.1 13.7 56.7 31 -2.9 26.8
23:30 1021 30.15 850 25.1 13.7 56.7 31 -2.9 26.8
23:35 1021 30.15 850 25.1 13.8 56.8 32 -2.6 27.2
23:40 1021 30.15 850 25.1 13.7 56.6 32 -2.7 27.2
23:45 1021 30.15 850 25.1 13.8 56.9 31 -3.1 26.3
23:50 1021 30.15 850 25.1 14.1 57.4 30 -3.2 26.3
23:55 1021 30.15 850 25.1 13.8 56.9 35 -1.3 29.7
24:00 1021 30.15 850 25.1 12.6 54.8 38 -1.3 29.6